sensor_id;sensor_type;location;lat;lon;timestamp;pressure;altitude;pressure_sealevel;temperature;humidity
50702;BME280;36670;50.094;8.496;2022-11-20T00:00:51;99981.00;;;4.22;68.91
50702;BME280;36670;50.094;8.496;2022-11-20T00:03:17;99968.22;;;4.16;67.77
50702;BME280;36670;50.094;8.496;2022-11-20T00:05:42;99968.47;;;4.08;68.02
50702;BME280;36670;50.094;8.496;2022-11-20T00:08:08;99967.38;;;4.16;67.71
50702;BME280;36670;50.094;8.496;2022-11-20T00:10:36;99975.50;;;3.84;68.19
50702;BME280;36670;50.094;8.496;2022-11-20T00:13:01;99969.53;;;3.55;68.90
50702;BME280;36670;50.094;8.496;2022-11-20T00:15:27;99977.06;;;3.59;68.56
50702;BME280;36670;50.094;8.496;2022-11-20T00:17:52;99973.91;;;3.56;69.37
50702;BME280;36670;50.094;8.496;2022-11-20T00:20:17;99972.06;;;3.50;69.52
50702;BME280;36670;50.094;8.496;2022-11-20T00:22:43;99964.88;;;3.69;69.15
50702;BME280;36670;50.094;8.496;2022-11-20T00:25:08;99963.78;;;3.76;69.55
50702;BME280;36670;50.094;8.496;2022-11-20T00:27:33;99967.19;;;3.58;69.02
50702;BME280;36670;50.094;8.496;2022-11-20T00:29:59;99969.94;;;3.58;69.83
50702;BME280;36670;50.094;8.496;2022-11-20T00:32:24;99963.97;;;3.82;69.83
50702;BME280;36670;50.094;8.496;2022-11-20T00:34:50;99957.03;;;3.86;68.82
50702;BME280;36670;50.094;8.496;2022-11-20T00:37:15;99962.91;;;3.83;69.13
50702;BME280;36670;50.094;8.496;2022-11-20T00:39:40;99957.72;;;3.68;69.58
50702;BME280;36670;50.094;8.496;2022-11-20T00:42:06;99960.47;;;3.68;69.10
50702;BME280;36670;50.094;8.496;2022-11-20T00:44:31;99963.97;;;3.82;69.60
50702;BME280;36670;50.094;8.496;2022-11-20T00:46:57;99958.28;;;3.90;69.55
50702;BME280;36670;50.094;8.496;2022-11-20T00:49:22;99965.03;;;3.74;69.75
50702;BME280;36670;50.094;8.496;2022-11-20T00:51:47;99960.81;;;3.78;69.68
50702;BME280;36670;50.094;8.496;2022-11-20T00:54:13;99953.75;;;4.09;68.98
50702;BME280;36670;50.094;8.496;2022-11-20T00:56:38;99946.47;;;3.89;69.41
50702;BME280;36670;50.094;8.496;2022-11-20T00:59:04;99941.09;;;3.76;69.63
50702;BME280;36670;50.094;8.496;2022-11-20T01:01:29;99945.66;;;3.89;69.64
50702;BME280;36670;50.094;8.496;2022-11-20T01:03:57;99945.25;;;3.85;70.05
50702;BME280;36670;50.094;8.496;2022-11-20T01:06:26;99937.91;;;3.86;70.17
50702;BME280;36670;50.094;8.496;2022-11-20T01:08:54;99943.16;;;3.87;69.85
50702;BME280;36670;50.094;8.496;2022-11-20T01:11:24;99946.72;;;3.81;71.04
50702;BME280;36670;50.094;8.496;2022-11-20T01:13:51;99947.50;;;3.95;70.73
50702;BME280;36670;50.094;8.496;2022-11-20T01:18:49;99953.53;;;3.65;71.11
50702;BME280;36670;50.094;8.496;2022-11-20T01:21:17;99957.09;;;3.59;71.65
50702;BME280;36670;50.094;8.496;2022-11-20T01:23:43;99962.03;;;3.89;71.27
50702;BME280;36670;50.094;8.496;2022-11-20T01:26:11;99962.03;;;3.89;71.76
50702;BME280;36670;50.094;8.496;2022-11-20T01:28:38;99956.03;;;3.67;71.60
50702;BME280;36670;50.094;8.496;2022-11-20T01:33:37;99953.97;;;3.62;72.04
50702;BME280;36670;50.094;8.496;2022-11-20T01:36:05;99944.53;;;3.58;72.08
50702;BME280;36670;50.094;8.496;2022-11-20T01:38:31;99952.03;;;3.69;71.59
50702;BME280;36670;50.094;8.496;2022-11-20T01:40:56;99945.31;;;3.72;71.67
50702;BME280;36670;50.094;8.496;2022-11-20T01:43:21;99953.41;;;3.47;72.56
50702;BME280;36670;50.094;8.496;2022-11-20T01:45:56;99941.13;;;3.69;72.36
50702;BME280;36670;50.094;8.496;2022-11-20T01:48:26;99947.72;;;3.41;72.87
50702;BME280;36670;50.094;8.496;2022-11-20T01:50:54;99951.13;;;3.17;73.86
50702;BME280;36670;50.094;8.496;2022-11-20T01:53:24;99936.22;;;3.26;73.94
50702;BME280;36670;50.094;8.496;2022-11-20T01:55:53;99946.09;;;3.86;72.80
50702;BME280;36670;50.094;8.496;2022-11-20T01:58:25;99937.00;;;3.99;72.08
50702;BME280;36670;50.094;8.496;2022-11-20T02:00:52;99937.09;;;4.17;71.67
50702;BME280;36670;50.094;8.496;2022-11-20T02:03:19;99938.50;;;3.88;72.04
50702;BME280;36670;50.094;8.496;2022-11-20T02:05:53;99939.00;;;3.71;73.17
50702;BME280;36670;50.094;8.496;2022-11-20T02:08:21;99945.72;;;3.75;73.53
50702;BME280;36670;50.094;8.496;2022-11-20T02:10:48;99944.06;;;3.68;73.59
50702;BME280;36670;50.094;8.496;2022-11-20T02:13:13;99936.19;;;3.39;73.82
50702;BME280;36670;50.094;8.496;2022-11-20T02:15:57;99926.91;;;3.99;73.26
50702;BME280;36670;50.094;8.496;2022-11-20T02:18:24;99924.94;;;4.13;72.29
50702;BME280;36670;50.094;8.496;2022-11-20T02:20:53;99923.44;;;3.79;73.01
50702;BME280;36670;50.094;8.496;2022-11-20T02:25:55;99926.09;;;3.92;73.12
50702;BME280;36670;50.094;8.496;2022-11-20T02:28:24;99920.03;;;3.90;73.12
50702;BME280;36670;50.094;8.496;2022-11-20T02:30:49;99917.16;;;3.71;73.49
50702;BME280;36670;50.094;8.496;2022-11-20T02:33:15;99909.81;;;3.72;73.73
50702;BME280;36670;50.094;8.496;2022-11-20T02:35:45;99914.28;;;3.59;74.08
50702;BME280;36670;50.094;8.496;2022-11-20T02:38:11;99914.13;;;3.93;72.36
50702;BME280;36670;50.094;8.496;2022-11-20T02:40:37;99911.22;;;4.20;72.85
50702;BME280;36670;50.094;8.496;2022-11-20T02:43:03;99918.09;;;4.29;72.46
50702;BME280;36670;50.094;8.496;2022-11-20T02:45:28;99923.69;;;4.09;72.36
50702;BME280;36670;50.094;8.496;2022-11-20T02:47:54;99926.06;;;3.99;72.74
50702;BME280;36670;50.094;8.496;2022-11-20T02:50:19;99929.97;;;3.71;73.23
50702;BME280;36670;50.094;8.496;2022-11-20T02:52:44;99930.25;;;4.01;73.12
50702;BME280;36670;50.094;8.496;2022-11-20T02:55:10;99919.78;;;4.30;72.46
50702;BME280;36670;50.094;8.496;2022-11-20T02:57:35;99906.91;;;4.37;72.20
50702;BME280;36670;50.094;8.496;2022-11-20T03:00:01;99912.25;;;4.25;72.00
50702;BME280;36670;50.094;8.496;2022-11-20T03:02:30;99896.31;;;4.16;72.15
50702;BME280;36670;50.094;8.496;2022-11-20T03:04:56;99907.63;;;3.94;73.20
50702;BME280;36670;50.094;8.496;2022-11-20T03:07:21;99913.31;;;3.86;72.65
50702;BME280;36670;50.094;8.496;2022-11-20T03:09:46;99916.94;;;3.73;73.48
50702;BME280;36670;50.094;8.496;2022-11-20T03:12:11;99924.81;;;3.95;73.77
50702;BME280;36670;50.094;8.496;2022-11-20T03:14:37;99930.09;;;3.89;73.07
50702;BME280;36670;50.094;8.496;2022-11-20T03:17:02;99924.25;;;3.86;72.77
50702;BME280;36670;50.094;8.496;2022-11-20T03:19:28;99927.63;;;3.81;72.43
50702;BME280;36670;50.094;8.496;2022-11-20T03:21:53;99913.38;;;3.72;72.93
50702;BME280;36670;50.094;8.496;2022-11-20T03:24:18;99912.09;;;3.82;73.16
50702;BME280;36670;50.094;8.496;2022-11-20T03:26:44;99918.75;;;3.92;72.80
50702;BME280;36670;50.094;8.496;2022-11-20T03:29:09;99919.34;;;4.01;72.61
50702;BME280;36670;50.094;8.496;2022-11-20T03:31:39;99918.91;;;3.98;72.78
50702;BME280;36670;50.094;8.496;2022-11-20T03:34:06;99921.94;;;3.83;73.11
50702;BME280;36670;50.094;8.496;2022-11-20T03:36:32;99909.72;;;3.92;72.11
50702;BME280;36670;50.094;8.496;2022-11-20T03:38:58;99910.28;;;3.69;72.82
50702;BME280;36670;50.094;8.496;2022-11-20T03:41:26;99918.28;;;3.57;73.31
50702;BME280;36670;50.094;8.496;2022-11-20T03:43:59;99919.50;;;3.68;72.99
50702;BME280;36670;50.094;8.496;2022-11-20T03:46:25;99905.75;;;3.42;73.90
50702;BME280;36670;50.094;8.496;2022-11-20T03:48:50;99912.50;;;3.33;74.18
50702;BME280;36670;50.094;8.496;2022-11-20T03:51:31;99905.53;;;3.37;74.09
50702;BME280;36670;50.094;8.496;2022-11-20T03:53:58;99897.78;;;3.41;74.09
50702;BME280;36670;50.094;8.496;2022-11-20T03:56:29;99900.91;;;3.45;73.99
50702;BME280;36670;50.094;8.496;2022-11-20T03:58:55;99914.31;;;3.53;74.28
50702;BME280;36670;50.094;8.496;2022-11-20T04:01:23;99908.75;;;3.73;73.76
50702;BME280;36670;50.094;8.496;2022-11-20T04:03:51;99907.31;;;3.70;73.39
50702;BME280;36670;50.094;8.496;2022-11-20T04:06:19;99903.84;;;3.43;73.61
50702;BME280;36670;50.094;8.496;2022-11-20T04:08:45;99899.22;;;3.44;73.83
50702;BME280;36670;50.094;8.496;2022-11-20T04:13:37;99883.78;;;3.69;72.66
50702;BME280;36670;50.094;8.496;2022-11-20T04:16:03;99877.50;;;3.69;72.87
50702;BME280;36670;50.094;8.496;2022-11-20T04:18:29;99891.25;;;3.87;72.39
50702;BME280;36670;50.094;8.496;2022-11-20T04:20:56;99887.81;;;3.60;73.14
50702;BME280;36670;50.094;8.496;2022-11-20T04:23:22;99898.50;;;3.62;73.07
50702;BME280;36670;50.094;8.496;2022-11-20T04:25:47;99890.06;;;3.76;72.69
50702;BME280;36670;50.094;8.496;2022-11-20T04:28:13;99892.00;;;3.63;72.94
50702;BME280;36670;50.094;8.496;2022-11-20T04:30:38;99887.06;;;3.85;72.65
50702;BME280;36670;50.094;8.496;2022-11-20T04:33:03;99890.50;;;3.73;72.72
50702;BME280;36670;50.094;8.496;2022-11-20T04:35:28;99876.69;;;3.62;72.73
50702;BME280;36670;50.094;8.496;2022-11-20T04:37:54;99880.56;;;3.40;73.95
50702;BME280;36670;50.094;8.496;2022-11-20T04:40:19;99883.13;;;3.29;73.91
50702;BME280;36670;50.094;8.496;2022-11-20T04:42:44;99888.41;;;3.17;74.17
50702;BME280;36670;50.094;8.496;2022-11-20T04:45:09;99877.25;;;3.25;75.02
50702;BME280;36670;50.094;8.496;2022-11-20T04:47:35;99875.13;;;3.34;74.02
50702;BME280;36670;50.094;8.496;2022-11-20T04:50:00;99877.81;;;3.47;74.20
50702;BME280;36670;50.094;8.496;2022-11-20T04:52:25;99892.34;;;3.80;73.41
50702;BME280;36670;50.094;8.496;2022-11-20T04:54:51;99891.53;;;4.11;73.00
50702;BME280;36670;50.094;8.496;2022-11-20T04:57:18;99891.47;;;4.50;72.21
50702;BME280;36670;50.094;8.496;2022-11-20T04:59:43;99895.28;;;4.17;72.11
50702;BME280;36670;50.094;8.496;2022-11-20T05:02:09;99887.94;;;3.79;73.09
50702;BME280;36670;50.094;8.496;2022-11-20T05:04:35;99891.28;;;3.81;73.35
50702;BME280;36670;50.094;8.496;2022-11-20T05:07:00;99884.94;;;3.87;73.25
50702;BME280;36670;50.094;8.496;2022-11-20T05:09:25;99884.69;;;3.95;73.12
50702;BME280;36670;50.094;8.496;2022-11-20T05:11:51;99881.88;;;4.40;72.47
50702;BME280;36670;50.094;8.496;2022-11-20T05:14:16;99877.56;;;4.76;71.01
50702;BME280;36670;50.094;8.496;2022-11-20T05:16:41;99876.09;;;4.74;70.25
50702;BME280;36670;50.094;8.496;2022-11-20T05:19:07;99873.69;;;4.84;70.11
50702;BME280;36670;50.094;8.496;2022-11-20T05:21:32;99879.38;;;4.83;70.31
50702;BME280;36670;50.094;8.496;2022-11-20T05:23:58;99871.13;;;4.89;70.32
50702;BME280;36670;50.094;8.496;2022-11-20T05:26:23;99862.97;;;4.83;69.87
50702;BME280;36670;50.094;8.496;2022-11-20T05:28:49;99862.28;;;4.43;70.79
50702;BME280;36670;50.094;8.496;2022-11-20T05:31:20;99866.91;;;4.43;70.98
50702;BME280;36670;50.094;8.496;2022-11-20T05:33:46;99877.34;;;4.27;70.80
50702;BME280;36670;50.094;8.496;2022-11-20T05:36:13;99883.38;;;4.36;70.56
50702;BME280;36670;50.094;8.496;2022-11-20T05:38:40;99878.91;;;4.42;70.97
50702;BME280;36670;50.094;8.496;2022-11-20T05:41:07;99874.66;;;4.46;69.91
50702;BME280;36670;50.094;8.496;2022-11-20T05:43:34;99873.16;;;4.25;71.42
50702;BME280;36670;50.094;8.496;2022-11-20T05:45:59;99870.53;;;3.73;72.00
50702;BME280;36670;50.094;8.496;2022-11-20T05:48:25;99869.78;;;3.91;72.12
50702;BME280;36670;50.094;8.496;2022-11-20T05:50:50;99877.69;;;4.38;72.12
50702;BME280;36670;50.094;8.496;2022-11-20T05:53:15;99870.97;;;4.59;70.86
50702;BME280;36670;50.094;8.496;2022-11-20T05:55:41;99880.69;;;4.55;71.00
50702;BME280;36670;50.094;8.496;2022-11-20T05:58:06;99864.69;;;4.01;71.57
50702;BME280;36670;50.094;8.496;2022-11-20T06:00:31;99860.16;;;3.88;71.67
50702;BME280;36670;50.094;8.496;2022-11-20T06:02:56;99869.03;;;3.77;72.36
50702;BME280;36670;50.094;8.496;2022-11-20T06:05:22;99865.66;;;4.14;71.75
50702;BME280;36670;50.094;8.496;2022-11-20T06:07:47;99879.06;;;4.22;71.21
50702;BME280;36670;50.094;8.496;2022-11-20T06:10:12;99868.97;;;4.22;71.37
50702;BME280;36670;50.094;8.496;2022-11-20T06:12:38;99863.81;;;4.07;71.50
50702;BME280;36670;50.094;8.496;2022-11-20T06:15:04;99875.66;;;4.52;70.93
50702;BME280;36670;50.094;8.496;2022-11-20T06:17:30;99868.38;;;4.46;70.01
50702;BME280;36670;50.094;8.496;2022-11-20T06:19:55;99857.53;;;4.32;71.44
50702;BME280;36670;50.094;8.496;2022-11-20T06:22:21;99856.03;;;4.11;71.22
50702;BME280;36670;50.094;8.496;2022-11-20T06:24:47;99861.84;;;3.83;71.55
50702;BME280;36670;50.094;8.496;2022-11-20T06:27:12;99868.22;;;3.76;72.10
50702;BME280;36670;50.094;8.496;2022-11-20T06:29:38;99869.94;;;3.64;72.83
50702;BME280;36670;50.094;8.496;2022-11-20T06:32:03;99862.03;;;3.88;72.51
50702;BME280;36670;50.094;8.496;2022-11-20T06:34:28;99864.41;;;4.41;71.63
50702;BME280;36670;50.094;8.496;2022-11-20T06:36:54;99864.84;;;4.64;70.39
50702;BME280;36670;50.094;8.496;2022-11-20T06:39:19;99867.91;;;4.74;70.17
50702;BME280;36670;50.094;8.496;2022-11-20T06:41:44;99851.84;;;4.59;70.16
50702;BME280;36670;50.094;8.496;2022-11-20T06:44:10;99868.03;;;4.35;71.40
50702;BME280;36670;50.094;8.496;2022-11-20T06:46:35;99854.81;;;4.00;71.54
50702;BME280;36670;50.094;8.496;2022-11-20T06:49:00;99850.03;;;3.96;72.19
50702;BME280;36670;50.094;8.496;2022-11-20T06:51:26;99854.28;;;4.17;71.51
50702;BME280;36670;50.094;8.496;2022-11-20T06:53:51;99852.78;;;4.21;72.13
50702;BME280;36670;50.094;8.496;2022-11-20T06:56:16;99858.44;;;4.26;71.50
50702;BME280;36670;50.094;8.496;2022-11-20T06:58:42;99864.31;;;4.23;71.40
50702;BME280;36670;50.094;8.496;2022-11-20T07:01:12;99866.06;;;4.42;71.16
50702;BME280;36670;50.094;8.496;2022-11-20T07:03:38;99866.91;;;4.18;71.48
50702;BME280;36670;50.094;8.496;2022-11-20T07:06:05;99876.44;;;4.34;71.60
50702;BME280;36670;50.094;8.496;2022-11-20T07:08:31;99879.47;;;4.51;71.14
50702;BME280;36670;50.094;8.496;2022-11-20T07:10:58;99874.94;;;4.38;71.33
50702;BME280;36670;50.094;8.496;2022-11-20T07:13:24;99878.16;;;4.28;72.22
50702;BME280;36670;50.094;8.496;2022-11-20T07:15:50;99874.72;;;4.65;71.99
50702;BME280;36670;50.094;8.496;2022-11-20T07:18:15;99886.03;;;4.68;72.05
50702;BME280;36670;50.094;8.496;2022-11-20T07:20:41;99884.09;;;4.94;71.50
50702;BME280;36670;50.094;8.496;2022-11-20T07:23:06;99887.00;;;5.18;71.43
50702;BME280;36670;50.094;8.496;2022-11-20T07:25:31;99879.72;;;5.30;69.66
50702;BME280;36670;50.094;8.496;2022-11-20T07:27:58;99869.91;;;5.41;69.61
50702;BME280;36670;50.094;8.496;2022-11-20T07:30:23;99871.66;;;5.54;69.35
50702;BME280;36670;50.094;8.496;2022-11-20T07:32:52;99874.25;;;5.30;69.96
50702;BME280;36670;50.094;8.496;2022-11-20T07:35:18;99868.94;;;5.35;70.19
50702;BME280;36670;50.094;8.496;2022-11-20T07:37:44;99867.94;;;5.29;70.78
50702;BME280;36670;50.094;8.496;2022-11-20T07:40:12;99869.00;;;5.47;69.77
50702;BME280;36670;50.094;8.496;2022-11-20T07:42:37;99870.44;;;5.68;70.14
50702;BME280;36670;50.094;8.496;2022-11-20T07:45:03;99868.09;;;5.84;69.53
50702;BME280;36670;50.094;8.496;2022-11-20T07:47:28;99876.19;;;5.78;70.11
50702;BME280;36670;50.094;8.496;2022-11-20T07:49:53;99884.03;;;5.75;70.20
50702;BME280;36670;50.094;8.496;2022-11-20T07:52:19;99881.47;;;5.92;69.62
50702;BME280;36670;50.094;8.496;2022-11-20T07:54:44;99888.97;;;5.85;69.32
50702;BME280;36670;50.094;8.496;2022-11-20T07:57:09;99890.75;;;5.91;69.52
50702;BME280;36670;50.094;8.496;2022-11-20T07:59:35;99887.53;;;5.82;69.15
50702;BME280;36670;50.094;8.496;2022-11-20T08:02:00;99890.09;;;5.77;69.58
50702;BME280;36670;50.094;8.496;2022-11-20T08:04:26;99892.78;;;5.95;69.54
50702;BME280;36670;50.094;8.496;2022-11-20T08:06:52;99894.56;;;6.08;69.13
50702;BME280;36670;50.094;8.496;2022-11-20T08:09:17;99897.06;;;5.91;69.62
50702;BME280;36670;50.094;8.496;2022-11-20T08:11:42;99890.72;;;5.79;70.10
50702;BME280;36670;50.094;8.496;2022-11-20T08:14:26;99903.63;;;5.90;70.22
50702;BME280;36670;50.094;8.496;2022-11-20T08:16:52;99895.88;;;6.18;69.51
50702;BME280;36670;50.094;8.496;2022-11-20T08:19:18;99904.44;;;6.09;69.47
50702;BME280;36670;50.094;8.496;2022-11-20T08:21:44;99891.84;;;6.20;69.47
50702;BME280;36670;50.094;8.496;2022-11-20T08:24:10;99898.84;;;6.04;69.04
50702;BME280;36670;50.094;8.496;2022-11-20T08:26:37;99912.84;;;5.96;69.79
50702;BME280;36670;50.094;8.496;2022-11-20T08:29:04;99909.25;;;6.26;69.84
50702;BME280;36670;50.094;8.496;2022-11-20T08:31:29;99904.56;;;6.45;68.79
50702;BME280;36670;50.094;8.496;2022-11-20T08:33:55;99909.56;;;6.36;69.05
50702;BME280;36670;50.094;8.496;2022-11-20T08:36:21;99918.78;;;6.23;68.50
50702;BME280;36670;50.094;8.496;2022-11-20T08:38:51;99912.88;;;6.38;68.95
50702;BME280;36670;50.094;8.496;2022-11-20T08:41:17;99922.16;;;6.37;69.29
50702;BME280;36670;50.094;8.496;2022-11-20T08:43:49;99914.22;;;6.59;68.94
50702;BME280;36670;50.094;8.496;2022-11-20T08:46:15;99915.44;;;6.63;68.57
50702;BME280;36670;50.094;8.496;2022-11-20T08:48:40;99907.56;;;6.67;68.22
50702;BME280;36670;50.094;8.496;2022-11-20T08:51:06;99909.25;;;6.68;69.12
50702;BME280;36670;50.094;8.496;2022-11-20T08:53:31;99906.63;;;6.73;69.23
50702;BME280;36670;50.094;8.496;2022-11-20T08:55:57;99904.97;;;6.84;68.75
50702;BME280;36670;50.094;8.496;2022-11-20T08:58:23;99899.00;;;6.87;68.55
50702;BME280;36670;50.094;8.496;2022-11-20T09:00:48;99906.97;;;6.89;69.19
50702;BME280;36670;50.094;8.496;2022-11-20T09:03:14;99912.09;;;6.61;69.66
50702;BME280;36670;50.094;8.496;2022-11-20T09:05:39;99906.13;;;6.76;69.93
50702;BME280;36670;50.094;8.496;2022-11-20T09:08:05;99906.38;;;6.75;69.09
50702;BME280;36670;50.094;8.496;2022-11-20T09:10:30;99919.13;;;6.57;69.56
50702;BME280;36670;50.094;8.496;2022-11-20T09:12:56;99921.28;;;6.67;70.00
50702;BME280;36670;50.094;8.496;2022-11-20T09:15:22;99922.34;;;6.66;70.16
50702;BME280;36670;50.094;8.496;2022-11-20T09:17:59;99919.84;;;6.76;69.54
50702;BME280;36670;50.094;8.496;2022-11-20T09:20:27;99917.09;;;6.76;69.84
50702;BME280;36670;50.094;8.496;2022-11-20T09:22:54;99914.97;;;6.90;69.40
50702;BME280;36670;50.094;8.496;2022-11-20T09:25:19;99914.38;;;7.12;69.11
50702;BME280;36670;50.094;8.496;2022-11-20T09:27:44;99905.56;;;6.98;69.52
50702;BME280;36670;50.094;8.496;2022-11-20T09:30:12;99911.63;;;6.76;69.89
50702;BME280;36670;50.094;8.496;2022-11-20T09:32:41;99921.44;;;6.84;70.57
50702;BME280;36670;50.094;8.496;2022-11-20T09:35:06;99909.47;;;7.14;69.49
50702;BME280;36670;50.094;8.496;2022-11-20T09:37:32;99912.03;;;6.92;69.55
50702;BME280;36670;50.094;8.496;2022-11-20T09:39:57;99909.13;;;7.10;69.54
50702;BME280;36670;50.094;8.496;2022-11-20T09:47:53;99908.50;;;7.32;69.23
50702;BME280;36670;50.094;8.496;2022-11-20T09:50:45;99907.13;;;7.06;70.08
50702;BME280;36670;50.094;8.496;2022-11-20T09:53:30;99906.88;;;6.95;69.92
50702;BME280;36670;50.094;8.496;2022-11-20T09:56:00;99906.75;;;7.02;69.86
50702;BME280;36670;50.094;8.496;2022-11-20T10:00:53;99901.81;;;7.28;70.01
50702;BME280;36670;50.094;8.496;2022-11-20T10:03:32;99909.75;;;7.00;70.51
50702;BME280;36670;50.094;8.496;2022-11-20T10:06:02;99907.81;;;7.25;70.11
50702;BME280;36670;50.094;8.496;2022-11-20T10:08:35;99901.75;;;7.23;69.98
50702;BME280;36670;50.094;8.496;2022-11-20T10:11:38;99903.38;;;7.47;69.34
50702;BME280;36670;50.094;8.496;2022-11-20T10:14:29;99902.97;;;7.56;69.76
50702;BME280;36670;50.094;8.496;2022-11-20T10:17:14;99896.38;;;7.16;69.14
50702;BME280;36670;50.094;8.496;2022-11-20T10:19:51;99898.88;;;7.17;70.65
50702;BME280;36670;50.094;8.496;2022-11-20T10:25:18;99892.16;;;7.49;69.56
50702;BME280;36670;50.094;8.496;2022-11-20T10:30:14;99879.59;;;7.41;69.12
50702;BME280;36670;50.094;8.496;2022-11-20T10:32:43;99872.94;;;7.37;69.49
50702;BME280;36670;50.094;8.496;2022-11-20T10:37:58;99874.03;;;7.12;70.00
50702;BME280;36670;50.094;8.496;2022-11-20T10:40:38;99874.28;;;7.11;70.02
50702;BME280;36670;50.094;8.496;2022-11-20T10:43:17;99863.31;;;6.99;69.87
50702;BME280;36670;50.094;8.496;2022-11-20T10:46:10;99864.88;;;6.95;70.62
50702;BME280;36670;50.094;8.496;2022-11-20T10:48:36;99857.09;;;7.15;70.54
50702;BME280;36670;50.094;8.496;2022-11-20T10:51:13;99860.44;;;7.29;70.58
50702;BME280;36670;50.094;8.496;2022-11-20T10:53:56;99852.94;;;7.13;70.95
50702;BME280;36670;50.094;8.496;2022-11-20T10:56:39;99857.25;;;7.49;69.66
50702;BME280;36670;50.094;8.496;2022-11-20T11:02:24;99868.06;;;7.27;70.21
50702;BME280;36670;50.094;8.496;2022-11-20T11:04:53;99864.59;;;7.20;70.47
50702;BME280;36670;50.094;8.496;2022-11-20T11:07:27;99866.63;;;7.25;70.20
50702;BME280;36670;50.094;8.496;2022-11-20T11:09:55;99863.06;;;7.12;70.72
50702;BME280;36670;50.094;8.496;2022-11-20T11:12:23;99856.75;;;7.24;70.82
50702;BME280;36670;50.094;8.496;2022-11-20T11:14:53;99859.47;;;7.24;70.46
50702;BME280;36670;50.094;8.496;2022-11-20T11:17:30;99857.13;;;7.56;70.87
50702;BME280;36670;50.094;8.496;2022-11-20T11:20:03;99853.66;;;7.90;69.59
50702;BME280;36670;50.094;8.496;2022-11-20T11:22:31;99846.69;;;7.70;69.81
50702;BME280;36670;50.094;8.496;2022-11-20T11:24:57;99840.84;;;7.66;69.85
50702;BME280;36670;50.094;8.496;2022-11-20T11:27:23;99838.94;;;7.67;70.56
50702;BME280;36670;50.094;8.496;2022-11-20T11:29:48;99841.72;;;7.84;68.63
50702;BME280;36670;50.094;8.496;2022-11-20T11:32:18;99835.97;;;7.57;70.47
50702;BME280;36670;50.094;8.496;2022-11-20T11:34:44;99826.28;;;7.66;70.37
50702;BME280;36670;50.094;8.496;2022-11-20T11:37:20;99824.19;;;7.73;69.93
50702;BME280;36670;50.094;8.496;2022-11-20T11:39:47;99825.03;;;7.74;70.18
50702;BME280;36670;50.094;8.496;2022-11-20T11:42:17;99818.22;;;7.76;70.22
50702;BME280;36670;50.094;8.496;2022-11-20T11:44:45;99817.00;;;7.84;69.79
50702;BME280;36670;50.094;8.496;2022-11-20T11:48:03;99826.56;;;7.81;69.95
50702;BME280;36670;50.094;8.496;2022-11-20T11:50:26;99819.88;;;8.06;69.39
50702;BME280;36670;50.094;8.496;2022-11-20T11:55:46;99803.28;;;8.01;69.14
50702;BME280;36670;50.094;8.496;2022-11-20T11:58:22;99804.03;;;7.96;69.66
50702;BME280;36670;50.094;8.496;2022-11-20T12:01:20;99797.66;;;7.79;69.70
50702;BME280;36670;50.094;8.496;2022-11-20T12:06:46;99782.59;;;7.98;69.09
50702;BME280;36670;50.094;8.496;2022-11-20T12:09:13;99786.44;;;7.97;69.82
50702;BME280;36670;50.094;8.496;2022-11-20T12:12:13;99785.09;;;8.00;70.01
50702;BME280;36670;50.094;8.496;2022-11-20T12:14:42;99785.78;;;8.07;69.70
50702;BME280;36670;50.094;8.496;2022-11-20T12:17:12;99784.44;;;8.10;69.20
50702;BME280;36670;50.094;8.496;2022-11-20T12:19:38;99790.97;;;8.20;68.72
50702;BME280;36670;50.094;8.496;2022-11-20T12:27:44;99801.28;;;8.30;69.15
50702;BME280;36670;50.094;8.496;2022-11-20T12:30:16;99784.13;;;8.40;69.16
50702;BME280;36670;50.094;8.496;2022-11-20T12:33:07;99793.13;;;8.35;69.15
50702;BME280;36670;50.094;8.496;2022-11-20T12:38:45;99785.94;;;8.85;67.59
50702;BME280;36670;50.094;8.496;2022-11-20T12:41:40;99781.44;;;9.01;67.43
50702;BME280;36670;50.094;8.496;2022-11-20T12:45:02;99781.41;;;8.96;67.85
50702;BME280;36670;50.094;8.496;2022-11-20T12:47:54;99778.22;;;8.87;67.23
50702;BME280;36670;50.094;8.496;2022-11-20T12:50:30;99788.59;;;8.80;67.81
50702;BME280;36670;50.094;8.496;2022-11-20T12:53:04;99780.41;;;8.85;67.45
50702;BME280;36670;50.094;8.496;2022-11-20T12:55:47;99774.31;;;8.83;67.21
50702;BME280;36670;50.094;8.496;2022-11-20T12:58:36;99774.28;;;8.78;67.34
50702;BME280;36670;50.094;8.496;2022-11-20T13:01:17;99772.84;;;8.76;66.70
50702;BME280;36670;50.094;8.496;2022-11-20T13:06:55;99771.13;;;8.18;68.98
50702;BME280;36670;50.094;8.496;2022-11-20T13:09:22;99768.97;;;8.03;69.27
50702;BME280;36670;50.094;8.496;2022-11-20T13:14:29;99753.13;;;8.11;69.44
50702;BME280;36670;50.094;8.496;2022-11-20T13:17:13;99751.38;;;8.05;68.62
50702;BME280;36670;50.094;8.496;2022-11-20T13:19:41;99743.94;;;8.22;69.09
50702;BME280;36670;50.094;8.496;2022-11-20T13:22:08;99740.66;;;8.03;69.44
50702;BME280;36670;50.094;8.496;2022-11-20T13:24:34;99745.28;;;8.36;68.90
50702;BME280;36670;50.094;8.496;2022-11-20T13:27:20;99738.53;;;8.27;68.93
50702;BME280;36670;50.094;8.496;2022-11-20T13:29:59;99738.63;;;8.15;68.89
50702;BME280;36670;50.094;8.496;2022-11-20T13:32:26;99735.47;;;8.07;69.48
50702;BME280;36670;50.094;8.496;2022-11-20T13:35:04;99743.94;;;8.22;69.42
50702;BME280;36670;50.094;8.496;2022-11-20T13:37:36;99738.38;;;8.00;69.36
50702;BME280;36670;50.094;8.496;2022-11-20T13:40:22;99737.38;;;8.06;69.34
50702;BME280;36670;50.094;8.496;2022-11-20T13:45:29;99739.13;;;7.95;69.63
50702;BME280;36670;50.094;8.496;2022-11-20T13:47:57;99738.00;;;7.79;69.53
50702;BME280;36670;50.094;8.496;2022-11-20T13:50:46;99733.09;;;7.64;70.59
50702;BME280;36670;50.094;8.496;2022-11-20T13:55:54;99727.25;;;7.61;70.37
50702;BME280;36670;50.094;8.496;2022-11-20T14:01:10;99719.78;;;7.56;70.30
50702;BME280;36670;50.094;8.496;2022-11-20T14:03:36;99708.78;;;7.73;70.95
50702;BME280;36670;50.094;8.496;2022-11-20T14:06:05;99710.56;;;7.96;70.75
50702;BME280;36670;50.094;8.496;2022-11-20T14:08:48;99706.03;;;8.07;70.06
50702;BME280;36670;50.094;8.496;2022-11-20T14:11:17;99707.72;;;8.08;70.14
50702;BME280;36670;50.094;8.496;2022-11-20T14:14:02;99696.00;;;8.35;69.64
50702;BME280;36670;50.094;8.496;2022-11-20T14:16:31;99701.47;;;8.30;69.19